Time;durP1;ratioP1;P1;durP2;ratioP2;P2;SDS_P1;SDS_P2;PMS_P1;PMS_P2;Temp;Humidity;BMP_temperature;BMP_pressure;BME280_temperature;BME280_humidity;BME280_pressure;Samples;Min_cycle;Max_cycle;Signal;HPM_P1;HPM_P2
2022/12/01 00:01:11;;;;;;;2.07;1.67;;;;;;;4.50;100.00;94818.53;5030111;28;20294;-83
2022/12/01 00:03:38;;;;;;;1.87;1.50;;;;;;;4.57;100.00;94809.09;5031867;28;20655;-83
2022/12/01 00:06:07;;;;;;;1.63;1.53;;;;;;;4.69;100.00;94815.41;5032047;28;20217;-86
2022/12/01 00:08:35;;;;;;;2.40;1.60;;;;;;;4.77;100.00;94812.75;5034390;28;20227;-87
2022/12/01 00:11:05;;;;;;;2.03;1.40;;;;;;;4.74;100.00;94825.97;5034709;28;20218;-86
2022/12/01 00:13:32;;;;;;;1.60;1.50;;;;;;;4.83;100.00;94822.31;5033945;28;20588;-87
2022/12/01 00:16:09;;;;;;;2.47;1.63;;;;;;;4.91;100.00;94826.56;5034013;28;20679;-85
2022/12/01 00:18:36;;;;;;;2.73;1.53;;;;;;;5.01;100.00;94817.59;5033315;28;20192;-85
2022/12/01 00:21:03;;;;;;;2.17;1.60;;;;;;;4.97;100.00;94821.50;5050069;28;20204;-86
2022/12/01 00:23:30;;;;;;;2.23;1.70;;;;;;;4.75;100.00;94813.91;5033421;28;20793;-86
2022/12/01 00:26:04;;;;;;;2.10;1.60;;;;;;;4.47;100.00;94822.22;5034086;28;20221;-87
2022/12/01 00:28:31;;;;;;;5.33;1.70;;;;;;;4.57;100.00;94820.19;5025196;28;20278;-86
2022/12/01 00:30:58;;;;;;;2.23;1.53;;;;;;;4.58;100.00;94819.22;5037565;28;20200;-85
2022/12/01 00:33:25;;;;;;;2.40;1.80;;;;;;;4.77;100.00;94817.88;5040839;28;20314;-83
2022/12/01 00:35:58;;;;;;;2.07;1.50;;;;;;;4.83;100.00;94817.19;5036081;28;20629;-85
2022/12/01 00:38:25;;;;;;;1.93;1.60;;;;;;;4.94;100.00;94821.06;5037638;28;20298;-84
2022/12/01 00:40:52;;;;;;;2.70;1.70;;;;;;;5.06;100.00;94828.16;5032943;28;20205;-85
2022/12/01 00:43:21;;;;;;;2.37;1.87;;;;;;;5.06;100.00;94824.78;5042726;28;20197;-84
2022/12/01 00:45:47;;;;;;;1.70;1.60;;;;;;;5.11;100.00;94825.03;5033667;28;20203;-85
2022/12/01 00:48:14;;;;;;;2.37;1.60;;;;;;;5.14;100.00;94817.75;5040863;28;20191;-80
2022/12/01 00:50:42;;;;;;;2.60;1.60;;;;;;;5.06;100.00;94809.34;5038169;28;20208;-80
2022/12/01 00:53:09;;;;;;;5.17;1.90;;;;;;;5.08;100.00;94809.94;5038434;28;20201;-81
2022/12/01 00:55:36;;;;;;;2.40;1.80;;;;;;;5.07;100.00;94811.75;5053816;28;20282;-80
2022/12/01 00:58:03;;;;;;;1.90;1.57;;;;;;;5.11;100.00;94817.31;5043804;28;20207;-81
2022/12/01 01:00:31;;;;;;;2.47;1.70;;;;;;;5.13;100.00;94816.19;5034750;28;20193;-80
2022/12/01 01:02:58;;;;;;;2.87;1.40;;;;;;;5.06;100.00;94812.72;5038115;28;20220;-80
2022/12/01 01:05:25;;;;;;;2.47;1.70;;;;;;;5.02;100.00;94811.47;5042077;28;20201;-82
2022/12/01 01:07:52;;;;;;;2.10;1.90;;;;;;;5.05;100.00;94811.09;5038717;28;20211;-79
2022/12/01 01:10:19;;;;;;;4.53;2.13;;;;;;;4.95;100.00;94789.19;5041932;28;20232;-81
2022/12/01 01:12:46;;;;;;;2.30;1.83;;;;;;;4.98;100.00;94805.09;5037896;28;20211;-80
2022/12/01 01:15:13;;;;;;;2.87;1.93;;;;;;;5.07;100.00;94813.50;5037284;28;20270;-80
2022/12/01 01:17:41;;;;;;;2.93;2.10;;;;;;;4.68;100.00;94797.56;5046029;28;20203;-80
2022/12/01 01:20:09;;;;;;;2.10;1.90;;;;;;;4.50;100.00;94796.13;5032173;28;20203;-80
2022/12/01 01:22:36;;;;;;;3.27;1.90;;;;;;;4.61;100.00;94801.84;5039691;28;20199;-79
2022/12/01 01:25:02;;;;;;;2.60;1.90;;;;;;;4.71;100.00;94797.19;5037803;28;20221;-80
2022/12/01 01:27:29;;;;;;;3.87;2.00;;;;;;;4.78;100.00;94791.19;5038276;28;20195;-89
2022/12/01 01:29:56;;;;;;;2.23;1.90;;;;;;;4.73;100.00;94792.69;5033246;28;20219;-87
2022/12/01 01:32:23;;;;;;;3.10;2.00;;;;;;;4.86;100.00;94787.69;5033587;28;20295;-86
2022/12/01 01:34:52;;;;;;;5.27;1.80;;;;;;;4.74;100.00;94776.25;5028361;28;20206;-87
2022/12/01 01:37:19;;;;;;;2.13;1.70;;;;;;;4.75;100.00;94773.50;5041840;28;20614;-87
2022/12/01 01:39:46;;;;;;;1.87;1.50;;;;;;;4.87;100.00;94777.22;5032461;28;20215;-86
2022/12/01 01:42:13;;;;;;;1.70;1.40;;;;;;;4.86;100.00;94775.63;5045158;28;20206;-88
2022/12/01 01:44:52;;;;;;;3.90;1.90;;;;;;;4.97;100.00;94776.94;5041240;28;20610;-88
2022/12/01 01:47:25;;;;;;;1.67;1.40;;;;;;;5.02;100.00;94774.63;5032956;28;20266;-87
2022/12/01 01:49:55;;;;;;;1.67;1.40;;;;;;;4.96;100.00;94767.63;5034233;28;20208;-88
2022/12/01 01:52:23;;;;;;;2.30;1.60;;;;;;;5.07;100.00;94775.69;5033582;28;20663;-87
2022/12/01 01:54:53;;;;;;;1.80;1.70;;;;;;;5.10;100.00;94770.19;5038428;28;20298;-88
2022/12/01 01:57:26;;;;;;;1.83;1.47;;;;;;;5.12;100.00;94777.72;5038904;28;20254;-89
2022/12/01 01:59:59;;;;;;;1.80;1.50;;;;;;;5.01;100.00;94763.53;5042412;28;20193;-84
2022/12/01 02:02:25;;;;;;;1.50;1.40;;;;;;;5.13;100.00;94771.59;5031336;28;20195;-84
2022/12/01 02:04:56;;;;;;;1.77;1.47;;;;;;;5.09;100.00;94768.56;5036641;28;20192;-82
2022/12/01 02:07:24;;;;;;;1.87;1.40;;;;;;;5.12;100.00;94763.06;5039329;28;20201;-82
2022/12/01 02:09:51;;;;;;;1.70;1.47;;;;;;;5.10;100.00;94759.06;5042085;28;20792;-80
2022/12/01 02:12:53;;;;;;;1.50;1.40;;;;;;;5.00;100.00;94756.78;5036018;28;20235;-79
2022/12/01 02:15:28;;;;;;;1.50;1.40;;;;;;;5.01;100.00;94749.84;5044786;28;20218;-79
2022/12/01 02:18:07;;;;;;;1.83;1.40;;;;;;;4.99;100.00;94759.53;5034563;28;20198;-80
2022/12/01 02:20:51;;;;;;;2.20;1.50;;;;;;;4.94;100.00;94752.34;5034594;28;20195;-80
2022/12/01 02:23:49;;;;;;;2.27;1.40;;;;;;;4.81;100.00;94751.41;5032255;28;20572;-80
2022/12/01 02:26:42;;;;;;;2.87;1.67;;;;;;;4.87;100.00;94764.34;5032413;28;20200;-80
2022/12/01 02:29:35;;;;;;;4.30;1.50;;;;;;;4.93;100.00;94760.25;5043594;28;20215;-85
2022/12/01 02:32:12;;;;;;;1.50;1.40;;;;;;;4.82;100.00;94747.88;5034904;28;20200;-84
2022/12/01 02:34:44;;;;;;;1.40;1.30;;;;;;;4.84;100.00;94748.47;5043153;28;20278;-84
2022/12/01 02:37:21;;;;;;;1.50;1.40;;;;;;;4.80;100.00;94748.03;5036496;28;20195;-84
2022/12/01 02:39:56;;;;;;;1.57;1.47;;;;;;;4.69;100.00;94733.03;5034269;28;20181;-82
2022/12/01 02:42:49;;;;;;;1.67;1.53;;;;;;;4.65;100.00;94752.38;5032928;28;20744;-81
2022/12/01 02:45:23;;;;;;;3.90;2.03;;;;;;;4.65;100.00;94756.75;5032463;28;20231;-82
2022/12/01 02:47:55;;;;;;;6.57;2.70;;;;;;;4.60;100.00;94754.72;5031132;28;20207;-81
2022/12/01 02:50:25;;;;;;;3.33;1.90;;;;;;;4.58;100.00;94752.31;5037243;28;20215;-79
2022/12/01 02:52:54;;;;;;;3.33;2.67;;;;;;;4.67;100.00;94749.66;5041132;28;20183;-82
2022/12/01 02:55:20;;;;;;;3.70;2.30;;;;;;;4.68;100.00;94754.59;5033390;28;20624;-79
2022/12/01 02:57:47;;;;;;;2.80;2.37;;;;;;;4.62;100.00;94755.31;5038346;28;20190;-80
2022/12/01 03:00:16;;;;;;;2.83;2.10;;;;;;;4.71;100.00;94748.28;5037876;28;20663;-80
2022/12/01 03:02:55;;;;;;;2.20;2.00;;;;;;;4.67;100.00;94754.78;5044669;28;20191;-80
2022/12/01 03:05:28;;;;;;;2.77;2.03;;;;;;;4.58;100.00;94754.09;5045832;28;20211;-80
2022/12/01 03:08:02;;;;;;;2.83;2.00;;;;;;;4.55;100.00;94754.44;5038805;28;20191;-80
2022/12/01 03:10:35;;;;;;;3.23;2.13;;;;;;;4.53;100.00;94748.69;5034804;28;20211;-81
2022/12/01 03:13:17;;;;;;;2.03;1.63;;;;;;;4.48;100.00;94744.06;5036904;28;20194;-79
2022/12/01 03:15:54;;;;;;;2.77;1.90;;;;;;;4.59;100.00;94756.47;5033660;28;20203;-78
2022/12/01 03:18:32;;;;;;;2.17;1.60;;;;;;;4.55;100.00;94746.72;5036754;28;20844;-79
2022/12/01 03:21:04;;;;;;;5.70;1.70;;;;;;;4.55;100.00;94739.81;5046466;28;20195;-81
2022/12/01 03:23:37;;;;;;;1.80;1.70;;;;;;;4.58;100.00;94752.31;5027796;28;20199;-81
2022/12/01 03:26:08;;;;;;;2.67;1.93;;;;;;;4.63;100.00;94749.19;5036790;28;20207;-82
2022/12/01 03:28:39;;;;;;;2.17;1.90;;;;;;;4.65;100.00;94746.47;5033483;28;20210;-83
2022/12/01 03:31:11;;;;;;;3.53;2.20;;;;;;;4.64;100.00;94744.84;5036040;28;20219;-82
2022/12/01 03:33:46;;;;;;;1.90;1.60;;;;;;;4.43;100.00;94741.22;5035023;28;20218;-82
2022/12/01 03:36:20;;;;;;;2.17;1.70;;;;;;;4.49;100.00;94737.94;5035068;28;20647;-82
2022/12/01 03:38:55;;;;;;;2.97;2.00;;;;;;;4.46;100.00;94738.31;5034287;28;20296;-80
2022/12/01 03:41:26;;;;;;;2.37;1.90;;;;;;;4.38;100.00;94743.56;5032917;28;20688;-80
2022/12/01 03:44:03;;;;;;;2.77;1.90;;;;;;;4.31;100.00;94739.28;5016715;28;20685;-82
2022/12/01 03:46:39;;;;;;;2.03;1.80;;;;;;;4.38;100.00;94733.25;5033939;28;20685;-82
2022/12/01 03:49:08;;;;;;;4.87;1.70;;;;;;;4.26;100.00;94723.59;5033085;28;20194;-81
2022/12/01 03:51:48;;;;;;;3.17;1.73;;;;;;;4.25;100.00;94729.69;5038910;28;20198;-82
2022/12/01 03:54:19;;;;;;;1.87;1.70;;;;;;;4.19;100.00;94732.97;5026465;28;20201;-81
2022/12/01 03:56:51;;;;;;;3.77;2.23;;;;;;;4.14;100.00;94736.09;5038453;28;20207;-81
2022/12/01 03:59:21;;;;;;;3.53;2.03;;;;;;;4.19;100.00;94735.53;5040053;28;20194;-80
2022/12/01 04:01:48;;;;;;;3.30;1.93;;;;;;;4.21;100.00;94749.84;5039102;28;20194;-81
2022/12/01 04:04:15;;;;;;;4.63;2.30;;;;;;;4.14;100.00;94748.94;5044608;28;20789;-81
2022/12/01 04:06:47;;;;;;;5.03;2.37;;;;;;;4.15;100.00;94749.75;5047612;28;20658;-81
2022/12/01 04:09:14;;;;;;;3.40;2.17;;;;;;;4.06;100.00;94750.78;5042624;28;20187;-80
2022/12/01 04:14:25;;;;;;;2.27;2.07;;;;;;;3.98;100.00;94752.44;5031310;28;20205;-79
2022/12/01 04:16:55;;;;;;;2.13;1.93;;;;;;;3.96;100.00;94751.03;5040311;28;20569;-79
2022/12/01 04:19:22;;;;;;;2.30;2.10;;;;;;;3.94;100.00;94753.00;5044979;28;20562;-81
2022/12/01 04:21:50;;;;;;;3.73;2.10;;;;;;;3.93;100.00;94746.25;5038023;28;20621;-81
2022/12/01 04:24:17;;;;;;;2.60;2.03;;;;;;;3.96;100.00;94756.19;5040945;28;20539;-79
2022/12/01 04:26:44;;;;;;;3.20;2.10;;;;;;;3.89;100.00;94763.00;5038050;28;20252;-78
2022/12/01 04:29:13;;;;;;;2.93;2.20;;;;;;;3.92;100.00;94758.31;5034910;28;20674;-80
2022/12/01 04:31:40;;;;;;;2.33;2.13;;;;;;;3.86;100.00;94760.78;5043552;28;20215;-81
2022/12/01 04:34:08;;;;;;;2.67;2.33;;;;;;;3.92;100.00;94752.38;5038480;28;20222;-80
2022/12/01 04:36:35;;;;;;;2.90;2.30;;;;;;;3.89;100.00;94763.00;5037297;28;20199;-83
2022/12/01 04:39:03;;;;;;;3.00;2.47;;;;;;;3.93;100.00;94772.75;5038543;28;20202;-82
2022/12/01 04:41:30;;;;;;;4.03;2.60;;;;;;;3.75;100.00;94761.97;5033361;28;20188;-81
2022/12/01 04:43:57;;;;;;;2.70;2.30;;;;;;;3.72;100.00;94758.97;5039954;28;20226;-80
2022/12/01 04:46:25;;;;;;;5.43;2.37;;;;;;;3.75;100.00;94764.53;5037063;28;20186;-82
2022/12/01 04:48:57;;;;;;;2.70;2.00;;;;;;;3.79;100.00;94775.28;5042234;28;20656;-81
2022/12/01 04:51:24;;;;;;;4.23;2.60;;;;;;;3.77;100.00;94761.81;5037379;28;20207;-81
2022/12/01 04:53:50;;;;;;;2.90;2.60;;;;;;;3.74;100.00;94759.59;5029482;28;20210;-83
2022/12/01 04:56:19;;;;;;;2.67;2.40;;;;;;;3.83;100.00;94773.97;5035101;28;20199;-82
2022/12/01 04:58:46;;;;;;;4.00;2.60;;;;;;;3.79;100.00;94765.00;5031629;28;20187;-81
2022/12/01 05:01:14;;;;;;;3.57;2.20;;;;;;;3.63;100.00;94757.44;5031486;28;20198;-81
2022/12/01 05:03:44;;;;;;;3.10;2.47;;;;;;;3.80;100.00;94771.75;5031752;28;20203;-83
2022/12/01 05:06:13;;;;;;;2.83;2.50;;;;;;;3.80;100.00;94770.00;5043533;28;20245;-84
2022/12/01 05:08:40;;;;;;;5.00;2.80;;;;;;;3.89;100.00;94773.28;5037075;28;20282;-83
2022/12/01 05:11:11;;;;;;;3.63;2.97;;;;;;;3.77;100.00;94774.66;5035060;28;20595;-82
2022/12/01 05:13:39;;;;;;;3.57;3.00;;;;;;;3.90;100.00;94772.28;5033489;28;20187;-82
2022/12/01 05:16:24;;;;;;;7.43;3.60;;;;;;;3.84;100.00;94773.78;5033870;28;20198;-82
2022/12/01 05:20:55;;;;;;;3.60;3.10;;;;;;;3.81;100.00;94779.28;5037283;28;20203;-81
2022/12/01 05:21:38;;;;;;;7.07;3.30;;;;;;;3.83;100.00;94777.34;5033424;28;20241;-79
2022/12/01 05:24:06;;;;;;;4.00;3.10;;;;;;;3.81;100.00;94773.38;5043730;28;20203;-81
2022/12/01 05:26:33;;;;;;;3.30;2.90;;;;;;;3.93;100.00;94788.19;5028713;28;20595;-82
2022/12/01 05:29:01;;;;;;;5.20;3.47;;;;;;;3.90;100.00;94773.09;5040571;28;20199;-76
2022/12/01 05:31:28;;;;;;;6.40;3.00;;;;;;;4.04;100.00;94786.94;5044933;28;20676;-76
2022/12/01 05:33:55;;;;;;;4.57;3.67;;;;;;;4.01;100.00;94777.81;5033101;28;20237;-76
2022/12/01 05:36:22;;;;;;;4.17;3.30;;;;;;;4.04;100.00;94781.81;5041778;28;20202;-83
2022/12/01 05:38:49;;;;;;;5.10;2.90;;;;;;;4.05;100.00;94764.59;5042040;28;20675;-84
2022/12/01 05:41:16;;;;;;;4.17;3.00;;;;;;;3.98;100.00;94790.25;5032049;28;20212;-84
2022/12/01 05:43:43;;;;;;;4.13;2.60;;;;;;;3.90;100.00;94785.16;5037762;28;20198;-84
2022/12/01 05:46:11;;;;;;;2.87;2.50;;;;;;;3.91;100.00;94784.19;5033595;28;20207;-77
2022/12/01 05:48:38;;;;;;;3.53;2.27;;;;;;;3.82;100.00;94787.78;5042866;28;20200;-84
2022/12/01 05:51:08;;;;;;;3.83;2.60;;;;;;;3.66;100.00;94785.38;5037456;28;20256;-82
2022/12/01 05:53:54;;;;;;;3.60;2.13;;;;;;;3.52;100.00;94786.88;5042168;28;20285;-82
2022/12/01 05:56:21;;;;;;;7.90;2.70;;;;;;;3.44;100.00;94794.66;5047359;28;20204;-82
2022/12/01 05:58:48;;;;;;;2.43;2.13;;;;;;;3.39;100.00;94791.81;5040190;28;20656;-77
2022/12/01 06:01:16;;;;;;;3.53;2.20;;;;;;;3.41;100.00;94784.72;5036929;28;20619;-76
2022/12/01 06:03:43;;;;;;;2.33;1.97;;;;;;;3.40;100.00;94790.84;5035471;28;20195;-80
2022/12/01 06:06:10;;;;;;;3.50;2.03;;;;;;;3.37;100.00;94797.13;5045961;28;20190;-80
2022/12/01 06:08:37;;;;;;;3.13;2.20;;;;;;;3.30;100.00;94787.69;5024288;28;20568;-80
2022/12/01 06:11:03;;;;;;;5.57;2.20;;;;;;;3.21;100.00;94789.50;5035210;28;20225;-81
2022/12/01 06:13:32;;;;;;;2.47;2.10;;;;;;;3.19;100.00;94786.31;5040856;28;20194;-76
2022/12/01 06:16:01;;;;;;;4.00;2.20;;;;;;;3.14;100.00;94786.03;5035652;28;20241;-76
2022/12/01 06:18:33;;;;;;;3.07;1.90;;;;;;;3.22;100.00;94791.09;5037098;28;20283;-76
2022/12/01 06:21:00;;;;;;;2.83;2.20;;;;;;;3.31;100.00;94795.22;5035531;28;20201;-76
2022/12/01 06:23:29;;;;;;;2.00;1.73;;;;;;;3.26;100.00;94794.16;5039675;28;20191;-78
2022/12/01 06:25:56;;;;;;;2.90;1.90;;;;;;;3.25;100.00;94795.91;5034794;28;20289;-77
2022/12/01 06:28:23;;;;;;;1.93;1.80;;;;;;;3.17;100.00;94790.03;5040239;28;20204;-76
2022/12/01 06:30:50;;;;;;;2.63;1.93;;;;;;;3.24;100.00;94791.72;5037930;28;20218;-76
2022/12/01 06:33:17;;;;;;;3.23;1.97;;;;;;;3.29;100.00;94793.81;5037701;28;20237;-76
2022/12/01 06:35:46;;;;;;;2.10;1.83;;;;;;;3.29;100.00;94783.53;5034209;28;20246;-75
2022/12/01 06:38:13;;;;;;;2.17;1.93;;;;;;;3.21;100.00;94786.13;5033501;28;20245;-76
2022/12/01 06:40:40;;;;;;;3.43;1.90;;;;;;;3.22;100.00;94787.75;5036687;28;20210;-76
2022/12/01 06:43:07;;;;;;;4.87;2.27;;;;;;;3.20;100.00;94784.56;5035073;28;20186;-76
2022/12/01 06:45:34;;;;;;;3.73;2.13;;;;;;;3.25;100.00;94782.25;5034278;28;20202;-77
2022/12/01 06:48:00;;;;;;;6.00;2.80;;;;;;;3.26;100.00;94791.56;5038301;28;20563;-77
2022/12/01 06:50:27;;;;;;;4.83;2.77;;;;;;;3.31;100.00;94789.28;5040548;28;20580;-77
2022/12/01 06:52:55;;;;;;;4.63;2.90;;;;;;;3.35;100.00;94793.09;5035055;28;20197;-77
2022/12/01 06:55:24;;;;;;;4.10;3.03;;;;;;;3.43;100.00;94785.38;5032905;28;20277;-76
2022/12/01 06:57:51;;;;;;;3.50;2.63;;;;;;;3.38;100.00;94788.44;5037164;28;20787;-78
2022/12/01 07:00:18;;;;;;;8.37;3.10;;;;;;;3.38;100.00;94791.00;5037071;28;20866;-75
2022/12/01 07:02:45;;;;;;;3.83;2.80;;;;;;;3.35;100.00;94787.97;5039657;28;20213;-76
2022/12/01 07:05:12;;;;;;;5.57;3.07;;;;;;;3.23;100.00;94761.88;5034475;28;20195;-76
2022/12/01 07:07:39;;;;;;;4.20;3.10;;;;;;;3.35;100.00;94788.78;5034733;28;20254;-76
2022/12/01 07:10:11;;;;;;;4.57;3.07;;;;;;;3.37;100.00;94789.41;5035578;28;20222;-76
2022/12/01 07:12:38;;;;;;;4.80;3.20;;;;;;;3.32;100.00;94794.25;5041132;28;20195;-76
2022/12/01 07:15:06;;;;;;;7.50;3.30;;;;;;;3.15;100.00;94792.75;5039818;28;20673;-81
2022/12/01 07:17:33;;;;;;;5.00;3.60;;;;;;;3.05;100.00;94788.81;5039115;28;20213;-80
2022/12/01 07:20:00;;;;;;;7.83;4.73;;;;;;;3.14;100.00;94798.06;5039713;28;20305;-82
2022/12/01 07:22:29;;;;;;;8.50;4.47;;;;;;;3.11;100.00;94795.84;5034350;28;20182;-82
2022/12/01 07:24:56;;;;;;;11.17;5.30;;;;;;;3.06;100.00;94791.19;5038800;28;20201;-76
2022/12/01 07:27:24;;;;;;;8.30;4.80;;;;;;;3.08;100.00;94796.97;5041293;28;20201;-76
2022/12/01 07:29:52;;;;;;;9.00;4.77;;;;;;;3.14;100.00;94790.34;5039644;28;20209;-77
2022/12/01 07:32:19;;;;;;;7.07;4.43;;;;;;;3.17;100.00;94779.75;5040234;28;20229;-76
2022/12/01 07:34:46;;;;;;;7.63;4.10;;;;;;;3.10;100.00;94784.75;5040813;28;20218;-77
2022/12/01 07:37:14;;;;;;;6.67;4.00;;;;;;;3.09;100.00;94784.94;5041286;28;20575;-77
2022/12/01 07:39:41;;;;;;;6.50;3.73;;;;;;;3.07;100.00;94792.78;5037265;28;20653;-75
2022/12/01 07:42:08;;;;;;;6.50;4.13;;;;;;;3.08;100.00;94791.84;5040941;28;20641;-77
2022/12/01 07:44:36;;;;;;;7.53;4.40;;;;;;;3.09;100.00;94792.66;5042591;28;20190;-76
2022/12/01 07:47:03;;;;;;;5.77;4.00;;;;;;;3.15;100.00;94787.59;5041227;28;20674;-82
2022/12/01 07:49:30;;;;;;;7.50;4.40;;;;;;;3.25;100.00;94792.53;5039589;28;20217;-82
2022/12/01 07:51:57;;;;;;;6.90;4.27;;;;;;;3.33;100.00;94789.91;5047261;28;20234;-81
2022/12/01 07:54:24;;;;;;;6.60;4.00;;;;;;;3.33;100.00;94788.16;5044054;28;20207;-82
2022/12/01 07:56:51;;;;;;;8.10;4.30;;;;;;;3.29;100.00;94797.16;5048414;28;20206;-82
2022/12/01 07:59:18;;;;;;;6.90;4.27;;;;;;;3.34;100.00;94794.91;5034508;28;20199;-81
2022/12/01 08:01:46;;;;;;;7.37;4.70;;;;;;;3.39;100.00;94802.88;5038121;28;20229;-81
2022/12/01 08:04:13;;;;;;;7.73;5.47;;;;;;;3.35;100.00;94799.03;5032983;28;20203;-82
2022/12/01 08:06:40;;;;;;;6.17;4.43;;;;;;;3.35;100.00;94793.91;5037997;28;20301;-77
2022/12/01 08:09:06;;;;;;;7.37;4.33;;;;;;;3.39;100.00;94791.81;5041334;28;20213;-77
2022/12/01 08:11:34;;;;;;;7.80;4.90;;;;;;;3.43;100.00;94793.84;5035141;28;20620;-76
2022/12/01 08:14:02;;;;;;;8.20;5.10;;;;;;;3.49;100.00;94794.16;5037480;28;20202;-77
2022/12/01 08:16:30;;;;;;;9.13;5.00;;;;;;;3.51;100.00;94793.00;5038610;28;20218;-75
2022/12/01 08:18:58;;;;;;;8.87;4.60;;;;;;;3.45;100.00;94786.00;5044118;28;20222;-76
2022/12/01 08:21:25;;;;;;;13.30;5.10;;;;;;;3.50;100.00;94795.72;5042188;28;20205;-76
2022/12/01 08:23:53;;;;;;;8.13;4.87;;;;;;;3.52;100.00;94796.38;5036101;28;20665;-76
2022/12/01 08:26:22;;;;;;;6.57;4.73;;;;;;;3.66;100.00;94805.91;5034832;28;20199;-76
2022/12/01 08:28:49;;;;;;;8.67;5.20;;;;;;;3.71;100.00;94795.91;5043941;28;20630;-76
2022/12/01 08:31:18;;;;;;;8.53;5.07;;;;;;;3.62;100.00;94796.94;5037660;28;20313;-77
2022/12/01 08:33:45;;;;;;;9.50;4.70;;;;;;;3.67;100.00;94804.91;5032167;28;20634;-76
2022/12/01 08:36:14;;;;;;;6.87;4.77;;;;;;;3.65;100.00;94799.16;5039443;28;20190;-75
2022/12/01 08:38:44;;;;;;;8.30;4.87;;;;;;;3.68;100.00;94793.69;5032532;28;20199;-77
2022/12/01 08:41:13;;;;;;;8.20;4.40;;;;;;;3.77;100.00;94798.59;5031296;28;20202;-77
2022/12/01 08:43:51;;;;;;;7.13;5.07;;;;;;;3.77;100.00;94805.50;5032464;28;20337;-82
2022/12/01 08:46:22;;;;;;;6.43;4.10;;;;;;;3.71;100.00;94799.28;5031127;28;20230;-82
2022/12/01 08:48:49;;;;;;;7.70;4.43;;;;;;;3.70;100.00;94792.53;5033806;28;20249;-82
2022/12/01 08:51:19;;;;;;;6.37;4.27;;;;;;;3.74;100.00;94793.00;5041570;28;20216;-83
2022/12/01 08:53:48;;;;;;;8.87;4.33;;;;;;;3.81;100.00;94788.78;5029409;28;20198;-78
2022/12/01 08:56:17;;;;;;;10.13;6.53;;;;;;;3.77;100.00;94792.66;5038230;28;20218;-77
2022/12/01 08:58:46;;;;;;;8.53;5.30;;;;;;;3.87;100.00;94790.63;5034192;28;20554;-81
2022/12/01 09:01:15;;;;;;;8.10;5.00;;;;;;;3.77;100.00;94784.94;5033780;28;20190;-80
2022/12/01 09:03:42;;;;;;;7.87;4.47;;;;;;;3.64;100.00;94785.50;5031133;28;20566;-80
2022/12/01 09:06:11;;;;;;;11.60;6.03;;;;;;;3.62;100.00;94784.09;5037752;28;20767;-80
2022/12/01 09:08:40;;;;;;;8.17;5.23;;;;;;;3.72;100.00;94792.38;5033936;28;20203;-80
2022/12/01 09:11:10;;;;;;;12.30;8.33;;;;;;;3.74;100.00;94780.97;5032438;28;20214;-83
2022/12/01 09:13:38;;;;;;;11.20;5.40;;;;;;;3.81;100.00;94787.00;5033416;28;20191;-80
2022/12/01 09:16:07;;;;;;;9.43;5.53;;;;;;;3.89;100.00;94776.66;5032322;28;20203;-76
2022/12/01 09:18:34;;;;;;;9.73;5.33;;;;;;;3.74;100.00;94780.16;5028797;28;20190;-76
2022/12/01 09:21:10;;;;;;;7.47;5.40;;;;;;;3.51;100.00;94781.94;5026086;28;20190;-78
2022/12/01 09:23:37;;;;;;;9.77;6.60;;;;;;;3.57;100.00;94783.81;5031291;28;20198;-79
2022/12/01 09:26:06;;;;;;;11.37;7.40;;;;;;;3.71;100.00;94773.59;5029963;28;20203;-77
2022/12/01 09:28:32;;;;;;;10.40;6.90;;;;;;;3.62;100.00;94766.09;5037361;28;20210;-77
2022/12/01 09:31:04;;;;;;;9.37;6.33;;;;;;;3.60;100.00;94774.00;5031142;28;20191;-79
2022/12/01 09:33:31;;;;;;;10.87;5.73;;;;;;;3.61;100.00;94769.66;5038436;28;20249;-79
2022/12/01 09:36:02;;;;;;;10.17;6.40;;;;;;;3.71;100.00;94765.88;5033716;28;20210;-78
2022/12/01 09:38:29;;;;;;;13.70;5.90;;;;;;;3.78;100.00;94766.78;5031314;28;20190;-77
2022/12/01 09:40:59;;;;;;;8.03;5.70;;;;;;;3.74;100.00;94754.47;5029431;28;20213;-78
2022/12/01 09:43:34;;;;;;;9.60;5.67;;;;;;;3.66;100.00;94764.81;5034140;28;21014;-77
2022/12/01 09:46:06;;;;;;;11.50;5.63;;;;;;;3.69;100.00;94767.03;5036280;28;20194;-79
2022/12/01 09:48:41;;;;;;;7.07;5.23;;;;;;;3.76;100.00;94763.59;5025898;28;20191;-80
2022/12/01 09:51:12;;;;;;;8.93;5.03;;;;;;;3.81;100.00;94761.28;5034869;28;20232;-77
2022/12/01 09:53:39;;;;;;;10.13;5.83;;;;;;;3.66;100.00;94747.63;5036791;28;20279;-78
2022/12/01 09:56:15;;;;;;;7.90;4.63;;;;;;;3.66;100.00;94757.09;5037312;28;20237;-78
2022/12/01 09:58:45;;;;;;;8.70;4.33;;;;;;;3.66;100.00;94755.34;5031090;28;20198;-78
2022/12/01 10:01:17;;;;;;;10.57;4.50;;;;;;;3.73;100.00;94750.28;5035174;28;20286;-77
2022/12/01 10:03:47;;;;;;;6.23;3.90;;;;;;;3.77;100.00;94741.25;5040626;28;20194;-79
2022/12/01 10:06:18;;;;;;;6.83;4.20;;;;;;;3.76;100.00;94749.94;5039181;28;21541;-80
2022/12/01 10:08:57;;;;;;;7.97;3.63;;;;;;;3.62;100.00;94741.22;5035870;28;20571;-79
2022/12/01 10:11:33;;;;;;;7.03;3.90;;;;;;;3.58;100.00;94749.47;5030205;28;20215;-82
2022/12/01 10:14:03;;;;;;;5.37;3.60;;;;;;;3.61;100.00;94737.03;5029371;28;20199;-82
2022/12/01 10:16:38;;;;;;;5.03;3.10;;;;;;;3.68;100.00;94739.72;5024166;28;20198;-81
2022/12/01 10:19:12;;;;;;;3.73;2.50;;;;;;;3.53;100.00;94749.97;5026594;28;20296;-77
2022/12/01 10:21:55;;;;;;;3.67;3.00;;;;;;;3.42;100.00;94737.53;5028609;28;20197;-77
2022/12/01 10:24:33;;;;;;;3.50;2.33;;;;;;;3.47;100.00;94745.50;5030573;28;20198;-77
2022/12/01 10:27:12;;;;;;;7.03;2.77;;;;;;;3.53;100.00;94738.88;5026991;28;20520;-76
2022/12/01 10:29:47;;;;;;;3.30;2.40;;;;;;;3.63;100.00;94737.69;5024985;28;20284;-76
2022/12/01 10:32:18;;;;;;;4.00;2.57;;;;;;;3.62;100.00;94735.28;5030546;28;20217;-77
2022/12/01 10:34:46;;;;;;;4.87;2.20;;;;;;;3.53;100.00;94734.53;5031089;28;20288;-77
2022/12/01 10:37:18;;;;;;;2.63;2.20;;;;;;;3.57;100.00;94740.16;5027826;28;20649;-77
2022/12/01 10:39:48;;;;;;;3.17;2.23;;;;;;;3.63;100.00;94740.25;5028384;28;20199;-81
2022/12/01 10:42:19;;;;;;;3.23;2.47;;;;;;;3.70;100.00;94735.19;5026709;28;20210;-80
2022/12/01 10:44:48;;;;;;;4.50;2.57;;;;;;;3.57;100.00;94727.31;5031306;28;20206;-80
2022/12/01 10:47:20;;;;;;;6.53;2.60;;;;;;;3.40;100.00;94719.75;5029025;28;20210;-80
2022/12/01 10:49:47;;;;;;;2.63;2.20;;;;;;;3.57;100.00;94742.72;5030899;28;20265;-80
2022/12/01 10:52:32;;;;;;;3.13;2.20;;;;;;;3.64;100.00;94733.31;5030499;28;21089;-80
2022/12/01 10:54:59;;;;;;;5.03;2.53;;;;;;;3.70;100.00;94732.63;5028099;28;20716;-81
2022/12/01 10:57:29;;;;;;;2.40;2.00;;;;;;;3.61;100.00;94736.28;5030826;28;20609;-75
2022/12/01 11:00:04;;;;;;;2.60;2.07;;;;;;;3.49;100.00;94732.50;5026982;28;20283;-78
2022/12/01 11:02:35;;;;;;;3.97;2.50;;;;;;;3.47;100.00;94729.28;5029670;28;20194;-81
2022/12/01 11:05:04;;;;;;;3.17;2.13;;;;;;;3.53;100.00;94736.31;5029945;28;20191;-76
2022/12/01 11:07:46;;;;;;;4.03;2.37;;;;;;;3.63;100.00;94729.97;5028756;28;20228;-81
2022/12/01 11:10:18;;;;;;;3.80;2.47;;;;;;;3.58;100.00;94729.69;5028992;28;20255;-82
2022/12/01 11:12:53;;;;;;;4.43;2.93;;;;;;;3.52;100.00;94725.22;5031787;28;20206;-81
2022/12/01 11:15:34;;;;;;;3.23;2.43;;;;;;;3.57;100.00;94720.41;5029674;28;20225;-82
2022/12/01 11:18:03;;;;;;;3.20;2.20;;;;;;;3.51;100.00;94718.50;5031371;28;20587;-80
2022/12/01 11:20:33;;;;;;;2.83;2.20;;;;;;;3.72;100.00;94723.00;5032883;28;20211;-82
2022/12/01 11:23:25;;;;;;;3.13;2.27;;;;;;;3.59;100.00;94717.63;5027266;28;20561;-81
2022/12/01 11:26:05;;;;;;;2.27;1.93;;;;;;;3.53;100.00;94720.91;5016098;28;20213;-82
2022/12/01 11:28:33;;;;;;;2.83;2.00;;;;;;;3.54;100.00;94719.94;5032447;28;20222;-80
2022/12/01 11:31:05;;;;;;;3.40;2.30;;;;;;;3.55;100.00;94724.13;5027402;28;20199;-81
2022/12/01 11:33:43;;;;;;;4.73;2.80;;;;;;;3.57;100.00;94717.03;5027269;28;20222;-75
2022/12/01 11:36:10;;;;;;;3.73;2.43;;;;;;;3.49;100.00;94733.31;5026750;28;20206;-83
2022/12/01 11:38:37;;;;;;;4.80;2.40;;;;;;;3.44;100.00;94726.09;5027049;28;20578;-84
2022/12/01 11:41:04;;;;;;;3.63;2.50;;;;;;;3.51;100.00;94721.09;5031646;28;20203;-83
2022/12/01 11:43:35;;;;;;;3.37;2.30;;;;;;;3.42;100.00;94722.94;5027734;28;20202;-83
2022/12/01 11:46:06;;;;;;;3.20;2.10;;;;;;;2.99;100.00;94720.19;5030393;28;20186;-83
2022/12/01 11:48:35;;;;;;;3.97;2.50;;;;;;;2.81;100.00;94716.09;5034515;28;20202;-82
2022/12/01 11:51:06;;;;;;;4.00;2.60;;;;;;;2.88;100.00;94710.31;5031098;28;20290;-79